Time;durP1;ratioP1;P1;durP2;ratioP2;P2;SDS_P1;SDS_P2;PMS_P1;PMS_P2;Temp;Humidity;BMP_temperature;BMP_pressure;BME280_temperature;BME280_humidity;BME280_pressure;Samples;Min_cycle;Max_cycle;Signal;HPM_P1;HPM_P2
2022/04/05 00:01:13;;;;;;;;;;;6.70;99.90;;;;;;5119921;27;19983;-70
2022/04/05 00:03:39;;;;;;;;;;;7.00;99.90;;;;;;5133731;27;19927;-69
2022/04/05 00:06:04;;;;;;;;;;;7.10;99.90;;;;;;5152887;27;20294;-68
2022/04/05 00:08:30;;;;;;;;;;;7.30;99.90;;;;;;5141645;27;19923;-68
2022/04/05 00:10:56;;;;;;;;;;;6.80;99.90;;;;;;5151671;27;19923;-68
2022/04/05 00:13:21;;;;;;;;;;;8.10;99.90;;;;;;5152952;27;19945;-68
2022/04/05 00:15:47;;;;;;;;;;;7.30;99.90;;;;;;5138574;27;20010;-70
2022/04/05 00:18:13;;;;;;;;;;;6.70;99.90;;;;;;5118293;28;19928;-69
2022/04/05 00:20:39;;;;;;;;;;;7.10;99.90;;;;;;5113923;28;20011;-68
2022/04/05 00:23:05;;;;;;;;;;;6.30;99.90;;;;;;5095470;28;19924;-69
2022/04/05 00:25:31;;;;;;;;;;;6.60;99.90;;;;;;5095902;28;19924;-69
2022/04/05 00:27:57;;;;;;;;;;;6.50;99.90;;;;;;5113697;28;21023;-68
2022/04/05 00:30:22;;;;;;;;;;;6.50;99.90;;;;;;5108609;28;20294;-70
2022/04/05 00:32:48;;;;;;;;;;;6.50;99.90;;;;;;5134357;28;20377;-70
2022/04/05 00:35:14;;;;;;;;;;;6.50;99.90;;;;;;5134314;28;19923;-69
2022/04/05 00:37:39;;;;;;;;;;;6.50;99.90;;;;;;5134283;28;20040;-70
2022/04/05 00:40:05;;;;;;;;;;;6.50;99.90;;;;;;5119568;28;20385;-69
2022/04/05 00:42:31;;;;;;;;;;;6.60;99.90;;;;;;5095449;28;19924;-68
2022/04/05 00:44:58;;;;;;;;;;;6.60;99.90;;;;;;5095762;28;20371;-69
2022/04/05 00:47:24;;;;;;;;;;;6.60;99.90;;;;;;5095990;28;19924;-70
2022/04/05 00:49:50;;;;;;;;;;;6.60;99.90;;;;;;5113995;28;20349;-68
2022/04/05 00:52:17;;;;;;;;;;;7.50;99.90;;;;;;5113362;28;20382;-67
2022/04/05 00:54:44;;;;;;;;;;;7.30;99.90;;;;;;5113965;28;19927;-68
2022/04/05 00:57:10;;;;;;;;;;;5.20;99.90;;;;;;5133848;28;19930;-67
2022/04/05 00:59:38;;;;;;;;;;;8.60;99.90;;;;;;5114649;28;19930;-68
2022/04/05 01:02:04;;;;;;;;;;;7.40;99.90;;;;;;5114687;28;19986;-69
2022/04/05 01:04:30;;;;;;;;;;;6.60;99.90;;;;;;5098683;28;20383;-69
2022/04/05 01:06:57;;;;;;;;;;;6.60;99.90;;;;;;5117203;28;19933;-69
2022/04/05 01:09:22;;;;;;;;;;;6.60;99.90;;;;;;5117030;28;19928;-69
2022/04/05 01:11:48;;;;;;;;;;;7.90;99.90;;;;;;5099759;28;19947;-67
2022/04/05 01:14:14;;;;;;;;;;;6.60;99.90;;;;;;5116839;28;19946;-68
2022/04/05 01:16:40;;;;;;;;;;;6.50;99.90;;;;;;5116731;28;19930;-69
2022/04/05 01:19:06;;;;;;;;;;;6.50;99.90;;;;;;5117022;28;19927;-67
2022/04/05 01:21:34;;;;;;;;;;;6.90;99.90;;;;;;5101725;27;19927;-69
2022/04/05 01:24:09;;;;;;;;;;;6.90;99.90;;;;;;5137275;27;20378;-70
2022/04/05 01:26:40;;;;;;;;;;;6.60;99.90;;;;;;5136034;27;19923;-68
2022/04/05 01:29:06;;;;;;;;;;;6.60;99.90;;;;;;5102291;27;20014;-69
2022/04/05 01:31:43;;;;;;;;;;;7.10;99.90;;;;;;5125812;27;20347;-70
2022/04/05 01:34:09;;;;;;;;;;;6.50;99.90;;;;;;5116656;28;19931;-70
2022/04/05 01:36:39;;;;;;;;;;;6.50;99.90;;;;;;5116738;28;19924;-68
2022/04/05 01:39:06;;;;;;;;;;;6.40;99.90;;;;;;5116236;28;20264;-69
2022/04/05 01:41:32;;;;;;;;;;;7.60;99.90;;;;;;5098732;28;20135;-68
2022/04/05 01:43:57;;;;;;;;;;;6.50;99.90;;;;;;5104629;27;19985;-70
2022/04/05 01:46:23;;;;;;;;;;;6.70;99.90;;;;;;5117537;27;20364;-68
2022/04/05 01:48:50;;;;;;;;;;;6.20;99.90;;;;;;5136865;27;20344;-68
2022/04/05 01:51:16;;;;;;;;;;;6.70;99.90;;;;;;5136756;27;20381;-68
2022/04/05 01:53:41;;;;;;;;;;;6.50;99.90;;;;;;5127198;27;19967;-69
2022/04/05 01:56:07;;;;;;;;;;;6.50;99.90;;;;;;5083619;27;19930;-67
2022/04/05 01:58:34;;;;;;;;;;;6.50;99.90;;;;;;5136804;27;19930;-68
2022/04/05 02:01:02;;;;;;;;;;;8.40;99.90;;;;;;5115729;27;20014;-68
2022/04/05 02:03:27;;;;;;;;;;;6.40;99.90;;;;;;5112441;27;19928;-67
2022/04/05 02:05:53;;;;;;;;;;;6.40;99.90;;;;;;5136577;27;20469;-68
2022/04/05 02:08:18;;;;;;;;;;;6.40;99.90;;;;;;5136434;27;20400;-69
2022/04/05 02:10:44;;;;;;;;;;;6.40;99.90;;;;;;5136357;27;19924;-69
2022/04/05 02:13:09;;;;;;;;;;;7.10;99.90;;;;;;5120264;27;20298;-69
2022/04/05 02:15:35;;;;;;;;;;;6.40;99.90;;;;;;5116003;28;20305;-68
2022/04/05 02:18:02;;;;;;;;;;;7.20;99.90;;;;;;5115006;28;20562;-68
2022/04/05 02:20:28;;;;;;;;;;;6.40;99.90;;;;;;5115703;28;19970;-68
2022/04/05 02:22:53;;;;;;;;;;;6.40;99.90;;;;;;5122302;27;19930;-69
2022/04/05 02:25:19;;;;;;;;;;;6.40;99.90;;;;;;5136086;27;20375;-69
2022/04/05 02:27:45;;;;;;;;;;;6.30;99.90;;;;;;5121827;27;19970;-69
2022/04/05 02:30:11;;;;;;;;;;;6.30;99.90;;;;;;5136248;27;20041;-67
2022/04/05 02:32:36;;;;;;;;;;;6.30;99.90;;;;;;5133994;27;19947;-69
2022/04/05 02:35:02;;;;;;;;;;;6.40;99.90;;;;;;5116141;27;19934;-69
2022/04/05 02:37:28;;;;;;;;;;;6.30;99.90;;;;;;5115348;28;19930;-69
2022/04/05 02:39:53;;;;;;;;;;;7.10;99.90;;;;;;5102834;27;19924;-69
2022/04/05 02:42:19;;;;;;;;;;;6.60;99.90;;;;;;5135668;27;19923;-69
2022/04/05 02:44:45;;;;;;;;;;;6.60;99.90;;;;;;5121289;27;19924;-70
2022/04/05 02:47:11;;;;;;;;;;;7.30;99.90;;;;;;5097412;28;20000;-69
2022/04/05 02:49:36;;;;;;;;;;;6.80;99.90;;;;;;5116490;27;19924;-67
2022/04/05 02:52:02;;;;;;;;;;;6.10;99.90;;;;;;5115006;28;19931;-69
2022/04/05 02:54:28;;;;;;;;;;;6.10;99.90;;;;;;5117761;27;19924;-69
2022/04/05 02:56:54;;;;;;;;;;;6.80;99.90;;;;;;5096963;28;19924;-69
2022/04/05 02:59:19;;;;;;;;;;;6.30;99.90;;;;;;5114843;28;20397;-69
2022/04/05 03:01:45;;;;;;;;;;;6.60;99.90;;;;;;5114994;28;19924;-68
2022/04/05 03:04:12;;;;;;;;;;;5.90;99.90;;;;;;5096099;27;19930;-68
2022/04/05 03:06:37;;;;;;;;;;;5.90;99.90;;;;;;5115753;27;20371;-69
2022/04/05 03:09:03;;;;;;;;;;;6.60;99.90;;;;;;5114774;28;19923;-68
2022/04/05 03:11:28;;;;;;;;;;;6.60;99.90;;;;;;5096038;28;19967;-67
2022/04/05 03:13:54;;;;;;;;;;;5.90;99.90;;;;;;5114520;28;19934;-70
2022/04/05 03:16:19;;;;;;;;;;;6.30;99.90;;;;;;5114939;28;20014;-69
2022/04/05 03:18:48;;;;;;;;;;;6.40;99.90;;;;;;5148736;27;20289;-69
2022/04/05 03:21:14;;;;;;;;;;;5.80;99.90;;;;;;5155750;27;19923;-68
2022/04/05 03:23:40;;;;;;;;;;;6.40;99.90;;;;;;5155669;27;19923;-69
2022/04/05 03:26:05;;;;;;;;;;;6.00;99.90;;;;;;5150499;27;19930;-68
2022/04/05 03:28:31;;;;;;;;;;;5.80;99.90;;;;;;5155677;27;20412;-68
2022/04/05 03:30:56;;;;;;;;;;;5.90;99.90;;;;;;5155444;27;20393;-68
2022/04/05 03:33:22;;;;;;;;;;;6.30;99.90;;;;;;5155746;27;19927;-69
2022/04/05 03:35:47;;;;;;;;;;;6.40;99.90;;;;;;5155714;27;20017;-68
2022/04/05 03:38:13;;;;;;;;;;;7.40;99.90;;;;;;5170942;27;19984;-69
2022/04/05 03:40:39;;;;;;;;;;;5.70;99.90;;;;;;5176552;27;20364;-68
2022/04/05 03:43:07;;;;;;;;;;;6.00;99.90;;;;;;5176213;27;19975;-68
2022/04/05 03:45:33;;;;;;;;;;;5.60;99.90;;;;;;5158211;27;19922;-67
2022/04/05 03:47:58;;;;;;;;;;;6.90;99.90;;;;;;5151823;27;19923;-69
2022/04/05 03:50:24;;;;;;;;;;;6.20;99.90;;;;;;5176307;27;20287;-69
2022/04/05 03:52:50;;;;;;;;;;;6.40;99.90;;;;;;5168934;27;19930;-67
2022/04/05 03:55:15;;;;;;;;;;;6.10;99.90;;;;;;5155786;27;19923;-69
2022/04/05 03:57:41;;;;;;;;;;;5.90;99.90;;;;;;5157276;27;20005;-67
2022/04/05 04:00:07;;;;;;;;;;;5.60;99.90;;;;;;5176382;27;20285;-69
2022/04/05 04:02:35;;;;;;;;;;;5.60;99.90;;;;;;5176253;27;20013;-68
2022/04/05 04:05:01;;;;;;;;;;;5.60;99.90;;;;;;5176246;27;19922;-68
2022/04/05 04:07:26;;;;;;;;;;;5.60;99.90;;;;;;5176056;27;20415;-68
2022/04/05 04:09:52;;;;;;;;;;;5.60;99.90;;;;;;5140198;27;19927;-70
2022/04/05 04:12:17;;;;;;;;;;;5.90;99.90;;;;;;5155222;27;19923;-69
2022/04/05 04:14:43;;;;;;;;;;;6.30;99.90;;;;;;5155071;27;20419;-68
2022/04/05 04:17:08;;;;;;;;;;;5.50;99.90;;;;;;5155111;27;20434;-69
2022/04/05 04:19:34;;;;;;;;;;;5.40;99.90;;;;;;5155591;27;19931;-69
2022/04/05 04:22:00;;;;;;;;;;;6.40;99.90;;;;;;5175761;27;19966;-69
2022/04/05 04:24:25;;;;;;;;;;;6.30;99.90;;;;;;5157762;27;20009;-70
2022/04/05 04:26:51;;;;;;;;;;;5.50;99.90;;;;;;5175922;27;20348;-67
2022/04/05 04:29:17;;;;;;;;;;;5.50;99.90;;;;;;5173453;27;20381;-68
2022/04/05 04:31:42;;;;;;;;;;;6.40;99.90;;;;;;5155741;27;19984;-70
2022/04/05 04:34:08;;;;;;;;;;;6.30;99.90;;;;;;5136727;27;19944;-69
2022/04/05 04:36:33;;;;;;;;;;;5.50;99.90;;;;;;5136737;27;19930;-68
2022/04/05 04:38:59;;;;;;;;;;;5.50;99.90;;;;;;5158697;27;19923;-70
2022/04/05 04:41:25;;;;;;;;;;;5.60;99.90;;;;;;5141084;27;20290;-68
2022/04/05 04:43:51;;;;;;;;;;;5.60;99.90;;;;;;5140458;27;19938;-68
2022/04/05 04:46:16;;;;;;;;;;;6.00;99.90;;;;;;5158753;27;19923;-69
2022/04/05 04:48:43;;;;;;;;;;;5.60;99.90;;;;;;5159012;27;19927;-70
2022/04/05 04:51:09;;;;;;;;;;;5.80;99.90;;;;;;5159489;27;19923;-69
2022/04/05 04:53:34;;;;;;;;;;;5.60;99.90;;;;;;5158835;27;20370;-69
2022/04/05 04:56:00;;;;;;;;;;;5.60;99.90;;;;;;5153553;27;19923;-68
2022/04/05 04:58:26;;;;;;;;;;;5.60;99.90;;;;;;5161082;27;19930;-69
2022/04/05 05:00:51;;;;;;;;;;;5.60;99.90;;;;;;5164800;27;19927;-68
2022/04/05 05:03:18;;;;;;;;;;;6.70;99.90;;;;;;5158592;27;20019;-70
2022/04/05 05:05:44;;;;;;;;;;;5.60;99.90;;;;;;5158591;27;19937;-68
2022/04/05 05:08:10;;;;;;;;;;;5.60;99.90;;;;;;5158572;27;19978;-69
2022/04/05 05:10:36;;;;;;;;;;;5.60;99.90;;;;;;5159095;27;19927;-68
2022/04/05 05:13:01;;;;;;;;;;;6.30;99.90;;;;;;5158292;27;19923;-69
2022/04/05 05:15:27;;;;;;;;;;;6.10;99.90;;;;;;5169267;27;20432;-68
2022/04/05 05:17:55;;;;;;;;;;;5.70;99.90;;;;;;5159958;27;19969;-67
2022/04/05 05:20:21;;;;;;;;;;;5.60;99.90;;;;;;5179187;27;19929;-68
2022/04/05 05:22:47;;;;;;;;;;;5.60;99.90;;;;;;5175008;27;19923;-69
2022/04/05 05:25:13;;;;;;;;;;;5.90;99.90;;;;;;5179063;27;19922;-68
2022/04/05 05:27:38;;;;;;;;;;;5.80;99.90;;;;;;5178757;27;19969;-68
2022/04/05 05:30:05;;;;;;;;;;;5.70;99.90;;;;;;5178876;27;19922;-67
2022/04/05 05:32:31;;;;;;;;;;;5.70;99.90;;;;;;5151802;27;20378;-70
2022/04/05 05:34:57;;;;;;;;;;;5.00;99.90;;;;;;5139873;27;19923;-69
2022/04/05 05:37:22;;;;;;;;;;;5.70;99.90;;;;;;5157968;27;20017;-69
2022/04/05 05:39:48;;;;;;;;;;;6.80;99.90;;;;;;5157931;27;19923;-70
2022/04/05 05:42:13;;;;;;;;;;;5.90;99.90;;;;;;5139296;27;19991;-68
2022/04/05 05:44:39;;;;;;;;;;;5.70;99.90;;;;;;5176539;27;19930;-69
2022/04/05 05:47:05;;;;;;;;;;;5.70;99.90;;;;;;5178431;27;19923;-67
2022/04/05 05:49:31;;;;;;;;;;;5.80;99.90;;;;;;5177411;27;20401;-68
2022/04/05 05:51:57;;;;;;;;;;;5.80;99.90;;;;;;5178574;27;19981;-68
2022/04/05 05:54:23;;;;;;;;;;;6.00;99.90;;;;;;5178531;27;19989;-68
2022/04/05 05:56:48;;;;;;;;;;;6.50;99.90;;;;;;5178343;27;20334;-68
2022/04/05 05:59:14;;;;;;;;;;;6.20;99.90;;;;;;5178340;27;19930;-69
2022/04/05 06:01:39;;;;;;;;;;;6.30;99.90;;;;;;5178140;27;19974;-68
2022/04/05 06:04:05;;;;;;;;;;;6.10;99.90;;;;;;5178088;27;19927;-68
2022/04/05 06:06:31;;;;;;;;;;;5.90;99.90;;;;;;5178635;27;19930;-68
2022/04/05 06:08:57;;;;;;;;;;;6.10;99.90;;;;;;5178230;27;20408;-70
2022/04/05 06:11:22;;;;;;;;;;;6.60;99.90;;;;;;5159749;27;19926;-69
2022/04/05 06:13:48;;;;;;;;;;;6.00;99.90;;;;;;5159484;27;19946;-69
2022/04/05 06:16:14;;;;;;;;;;;7.10;99.90;;;;;;5159313;27;19946;-68
2022/04/05 06:18:43;;;;;;;;;;;6.10;99.90;;;;;;5178118;27;19923;-68
2022/04/05 06:21:08;;;;;;;;;;;6.10;99.90;;;;;;5159365;27;19923;-70
2022/04/05 06:23:34;;;;;;;;;;;6.60;99.90;;;;;;5177910;27;19923;-69
2022/04/05 06:26:00;;;;;;;;;;;6.20;99.90;;;;;;5177831;27;19923;-69
2022/04/05 06:28:26;;;;;;;;;;;6.20;99.90;;;;;;5176496;27;19923;-70
2022/04/05 06:30:51;;;;;;;;;;;6.90;99.90;;;;;;5177698;27;20021;-69
2022/04/05 06:33:19;;;;;;;;;;;6.30;99.90;;;;;;5177265;27;19974;-69
2022/04/05 06:35:46;;;;;;;;;;;4.70;99.90;;;;;;5177718;27;19967;-69
2022/04/05 06:38:12;;;;;;;;;;;6.70;99.90;;;;;;5177524;27;19922;-69
2022/04/05 06:40:37;;;;;;;;;;;6.40;99.90;;;;;;5177609;27;19951;-69
2022/04/05 06:43:03;;;;;;;;;;;6.70;99.90;;;;;;5141539;27;20296;-67
2022/04/05 06:45:29;;;;;;;;;;;6.40;99.90;;;;;;5158682;27;19923;-70
2022/04/05 06:47:55;;;;;;;;;;;6.40;99.90;;;;;;5158702;27;20365;-69
2022/04/05 06:50:24;;;;;;;;;;;6.10;99.90;;;;;;5177493;27;20397;-69
2022/04/05 06:52:54;;;;;;;;;;;6.50;99.90;;;;;;5177223;27;19930;-70
2022/04/05 06:55:20;;;;;;;;;;;6.50;99.90;;;;;;5177236;27;19979;-70
2022/04/05 06:57:45;;;;;;;;;;;4.90;99.90;;;;;;5177032;27;19974;-67
2022/04/05 07:00:12;;;;;;;;;;;6.80;99.90;;;;;;5176376;27;20030;-68
2022/04/05 07:02:38;;;;;;;;;;;6.60;99.90;;;;;;5157936;27;19929;-69
2022/04/05 07:05:04;;;;;;;;;;;6.80;99.90;;;;;;5177100;27;20010;-68
2022/04/05 07:07:30;;;;;;;;;;;6.60;99.90;;;;;;5141298;27;19966;-69
2022/04/05 07:09:55;;;;;;;;;;;6.70;99.90;;;;;;5177084;27;19930;-70
2022/04/05 07:12:23;;;;;;;;;;;7.60;99.90;;;;;;5158416;27;19922;-69
2022/04/05 07:14:48;;;;;;;;;;;7.10;99.90;;;;;;5158516;27;19922;-69
2022/04/05 07:17:14;;;;;;;;;;;7.60;99.90;;;;;;5176594;27;19930;-70
2022/04/05 07:19:40;;;;;;;;;;;7.40;99.90;;;;;;5176550;27;19946;-69
2022/04/05 07:22:05;;;;;;;;;;;6.80;99.90;;;;;;5176798;27;20412;-68
2022/04/05 07:24:31;;;;;;;;;;;6.80;99.90;;;;;;5176900;27;20302;-68
2022/04/05 07:26:57;;;;;;;;;;;6.80;99.90;;;;;;5176513;27;19923;-70
2022/04/05 07:29:23;;;;;;;;;;;6.90;99.90;;;;;;5176585;27;19934;-69
2022/04/05 07:31:48;;;;;;;;;;;6.90;99.90;;;;;;5176520;27;19930;-67
2022/04/05 07:34:14;;;;;;;;;;;5.80;99.90;;;;;;5157808;27;19923;-69
2022/04/05 07:36:39;;;;;;;;;;;7.40;99.90;;;;;;5176598;27;19923;-68
2022/04/05 07:39:05;;;;;;;;;;;7.60;99.90;;;;;;5176513;27;20419;-68
2022/04/05 07:41:31;;;;;;;;;;;7.00;99.90;;;;;;5176427;27;19923;-69
2022/04/05 07:43:56;;;;;;;;;;;7.00;99.90;;;;;;5176269;27;19926;-68
2022/04/05 07:46:22;;;;;;;;;;;8.30;99.90;;;;;;5176403;27;19927;-69
2022/04/05 07:48:47;;;;;;;;;;;7.10;99.90;;;;;;5157958;27;19927;-69
2022/04/05 07:51:14;;;;;;;;;;;7.10;99.90;;;;;;5176376;27;20398;-68
2022/04/05 07:53:40;;;;;;;;;;;7.10;99.90;;;;;;5176175;27;20305;-70
2022/04/05 07:56:05;;;;;;;;;;;7.10;99.90;;;;;;5157759;27;19922;-68
2022/04/05 07:58:31;;;;;;;;;;;7.10;99.90;;;;;;5157581;27;19923;-69
2022/04/05 08:00:56;;;;;;;;;;;7.10;99.90;;;;;;5176175;27;19923;-70
2022/04/05 08:03:22;;;;;;;;;;;7.10;99.90;;;;;;5176071;27;19927;-69
2022/04/05 08:05:48;;;;;;;;;;;7.70;99.90;;;;;;5176300;27;19927;-69
2022/04/05 08:08:14;;;;;;;;;;;7.20;99.90;;;;;;5176274;27;20015;-70
2022/04/05 08:10:40;;;;;;;;;;;7.40;99.90;;;;;;5157923;27;19922;-69
2022/04/05 08:13:05;;;;;;;;;;;7.20;99.90;;;;;;5144487;27;20300;-68
2022/04/05 08:15:31;;;;;;;;;;;6.90;99.90;;;;;;5180335;27;19923;-67
2022/04/05 08:17:57;;;;;;;;;;;7.40;99.90;;;;;;5180419;27;19973;-69
2022/04/05 08:20:23;;;;;;;;;;;7.20;99.90;;;;;;5161686;27;20395;-70
2022/04/05 08:22:49;;;;;;;;;;;7.30;99.90;;;;;;5180361;27;19927;-68
2022/04/05 08:25:16;;;;;;;;;;;7.90;99.90;;;;;;5180279;27;20300;-68
2022/04/05 08:27:45;;;;;;;;;;;7.20;99.90;;;;;;5179998;27;19979;-70
2022/04/05 08:30:15;;;;;;;;;;;7.10;99.90;;;;;;5180117;27;19923;-69
2022/04/05 08:32:42;;;;;;;;;;;7.20;99.90;;;;;;5179995;27;20381;-68
2022/04/05 08:35:08;;;;;;;;;;;7.60;99.90;;;;;;5179976;27;20013;-69
2022/04/05 08:37:34;;;;;;;;;;;7.20;99.90;;;;;;5180101;27;19923;-68
2022/04/05 08:40:00;;;;;;;;;;;7.20;99.90;;;;;;5179992;27;19946;-69
2022/04/05 08:42:25;;;;;;;;;;;7.20;99.90;;;;;;5179730;27;19966;-68
2022/04/05 08:44:51;;;;;;;;;;;7.30;99.90;;;;;;5179830;27;19930;-70
2022/04/05 08:47:23;;;;;;;;;;;7.30;99.90;;;;;;5179794;27;20428;-68
2022/04/05 08:49:49;;;;;;;;;;;7.40;99.90;;;;;;5179595;27;20015;-68
2022/04/05 08:52:14;;;;;;;;;;;8.20;99.90;;;;;;5179750;27;19988;-68
2022/04/05 08:54:40;;;;;;;;;;;8.30;99.90;;;;;;5179701;27;19926;-68
2022/04/05 08:57:06;;;;;;;;;;;7.40;99.90;;;;;;5160959;27;19926;-69
2022/04/05 08:59:31;;;;;;;;;;;7.40;99.90;;;;;;5179588;27;19929;-69
2022/04/05 09:01:58;;;;;;;;;;;7.40;99.90;;;;;;5161156;27;19945;-69
2022/04/05 09:04:23;;;;;;;;;;;7.40;99.90;;;;;;5159664;27;19922;-69
2022/04/05 09:06:49;;;;;;;;;;;7.40;99.90;;;;;;5179863;27;19975;-68
2022/04/05 09:09:17;;;;;;;;;;;7.40;99.90;;;;;;5178987;27;19927;-69
2022/04/05 09:11:43;;;;;;;;;;;7.40;99.90;;;;;;5178645;27;19933;-69
2022/04/05 09:14:09;;;;;;;;;;;7.40;99.90;;;;;;5179023;27;19923;-69
2022/04/05 09:16:35;;;;;;;;;;;9.00;99.90;;;;;;5160363;27;19923;-67
2022/04/05 09:19:14;;;;;;;;;;;7.50;99.90;;;;;;5178957;27;20385;-70
2022/04/05 09:21:54;;;;;;;;;;;7.50;99.90;;;;;;5160501;27;19974;-68
2022/04/05 09:24:20;;;;;;;;;;;7.50;99.90;;;;;;5178122;27;19948;-68
2022/04/05 09:26:46;;;;;;;;;;;7.60;99.90;;;;;;5159771;27;19923;-68
2022/04/05 09:29:12;;;;;;;;;;;7.50;99.90;;;;;;5160226;27;20100;-69
2022/04/05 09:31:48;;;;;;;;;;;7.50;99.90;;;;;;5178841;27;20433;-68
2022/04/05 09:34:19;;;;;;;;;;;7.50;99.90;;;;;;5160487;27;19922;-68
2022/04/05 09:36:49;;;;;;;;;;;7.50;99.90;;;;;;5160263;27;19937;-69
2022/04/05 09:39:14;;;;;;;;;;;7.50;99.90;;;;;;5160481;27;19923;-68
2022/04/05 09:41:40;;;;;;;;;;;7.60;99.90;;;;;;5160185;27;19930;-69
2022/04/05 09:44:05;;;;;;;;;;;7.50;99.90;;;;;;5178569;27;20373;-70
2022/04/05 09:46:33;;;;;;;;;;;7.60;99.90;;;;;;5178655;27;20381;-69
2022/04/05 09:49:09;;;;;;;;;;;7.60;99.90;;;;;;5178827;27;19923;-70
2022/04/05 09:51:42;;;;;;;;;;;7.60;99.90;;;;;;5178783;27;19929;-69
2022/04/05 09:54:08;;;;;;;;;;;7.60;99.90;;;;;;5160013;27;19968;-68
2022/04/05 09:56:34;;;;;;;;;;;7.70;99.90;;;;;;5178426;27;20021;-70
2022/04/05 09:59:03;;;;;;;;;;;6.60;99.90;;;;;;5178254;27;19975;-68
2022/04/05 10:01:29;;;;;;;;;;;7.80;99.90;;;;;;5178498;27;20021;-69
2022/04/05 10:03:56;;;;;;;;;;;7.80;99.90;;;;;;5178362;27;20009;-69
2022/04/05 10:06:22;;;;;;;;;;;8.00;99.90;;;;;;5178307;27;19927;-68
2022/04/05 10:08:48;;;;;;;;;;;7.80;99.90;;;;;;5178267;27;19929;-68
2022/04/05 10:11:14;;;;;;;;;;;7.90;99.90;;;;;;5177858;27;19927;-69
2022/04/05 10:13:40;;;;;;;;;;;8.10;99.90;;;;;;5159283;27;19945;-68
2022/04/05 10:16:06;;;;;;;;;;;7.90;99.90;;;;;;5159875;27;20412;-69
2022/04/05 10:18:34;;;;;;;;;;;8.40;99.90;;;;;;5177987;27;19923;-69
2022/04/05 10:21:01;;;;;;;;;;;7.90;99.90;;;;;;5177948;27;19946;-69
2022/04/05 10:23:27;;;;;;;;;;;8.10;99.90;;;;;;5158813;27;20018;-68
2022/04/05 10:25:52;;;;;;;;;;;7.90;99.90;;;;;;5159491;27;19935;-68
2022/04/05 10:28:21;;;;;;;;;;;7.90;99.90;;;;;;5177550;27;19923;-69
2022/04/05 10:31:07;;;;;;;;;;;9.20;99.90;;;;;;5177971;27;19931;-68
2022/04/05 10:33:52;;;;;;;;;;;7.90;99.90;;;;;;5056099;28;19982;-67
2022/04/05 10:36:24;;;;;;;;;;;7.90;99.90;;;;;;5071535;28;20166;-69
2022/04/05 10:39:08;;;;;;;;;;;7.90;99.90;;;;;;5056128;28;20434;-71
2022/04/05 10:41:33;;;;;;;;;;;7.90;99.90;;;;;;5060354;28;19935;-67
2022/04/05 10:44:18;;;;;;;;;;;8.20;99.90;;;;;;5066272;28;19925;-69
2022/04/05 10:46:54;;;;;;;;;;;7.90;99.90;;;;;;5035696;28;19924;-69
2022/04/05 10:49:35;;;;;;;;;;;7.90;99.90;;;;;;5052161;28;19931;-70
2022/04/05 10:52:11;;;;;;;;;;;7.90;99.90;;;;;;5052305;28;19971;-70
2022/04/05 10:54:40;;;;;;;;;;;9.00;99.90;;;;;;5052107;28;19924;-69
2022/04/05 10:57:15;;;;;;;;;;;8.80;99.90;;;;;;5051954;28;20023;-68
2022/04/05 10:59:48;;;;;;;;;;;8.00;99.90;;;;;;5052127;28;19925;-68
2022/04/05 11:02:33;;;;;;;;;;;8.10;99.90;;;;;;5035703;28;20399;-69
2022/04/05 11:05:00;;;;;;;;;;;8.10;99.90;;;;;;5052019;28;19925;-69
2022/04/05 11:07:26;;;;;;;;;;;8.10;99.90;;;;;;5052056;28;20368;-68
2022/04/05 11:09:57;;;;;;;;;;;8.10;99.90;;;;;;5070881;27;20003;-69
2022/04/05 11:12:42;;;;;;;;;;;8.10;99.90;;;;;;5137604;27;19972;-70
2022/04/05 11:15:10;;;;;;;;;;;8.10;99.90;;;;;;5137339;27;19929;-68
2022/04/05 11:17:36;;;;;;;;;;;8.10;99.90;;;;;;5156007;27;20023;-67
2022/04/05 11:20:03;;;;;;;;;;;8.10;99.90;;;;;;5155157;27;20026;-69
2022/04/05 11:22:34;;;;;;;;;;;8.10;99.90;;;;;;5137056;27;19930;-68
2022/04/05 11:25:06;;;;;;;;;;;8.00;99.90;;;;;;5155567;27;19923;-69
2022/04/05 11:27:50;;;;;;;;;;;8.10;99.90;;;;;;5136965;27;19923;-69
2022/04/05 11:30:27;;;;;;;;;;;8.10;99.90;;;;;;5155598;27;20014;-68
2022/04/05 11:33:12;;;;;;;;;;;8.10;99.90;;;;;;5154622;27;19976;-68
2022/04/05 11:35:38;;;;;;;;;;;8.20;99.90;;;;;;5155403;27;19923;-68
2022/04/05 11:38:05;;;;;;;;;;;8.10;99.90;;;;;;5137286;27;20393;-69
2022/04/05 11:40:30;;;;;;;;;;;8.10;99.90;;;;;;5155382;27;19923;-67
2022/04/05 11:42:59;;;;;;;;;;;8.10;99.90;;;;;;5155442;27;19967;-70
2022/04/05 11:45:24;;;;;;;;;;;8.10;99.90;;;;;;5155385;27;19968;-68
2022/04/05 11:47:54;;;;;;;;;;;8.80;99.90;;;;;;5154942;27;20354;-69
2022/04/05 11:50:20;;;;;;;;;;;8.20;99.90;;;;;;5136337;27;19923;-69
2022/04/05 11:52:46;;;;;;;;;;;8.40;99.90;;;;;;5155439;27;19927;-68
2022/04/05 11:58:02;;;;;;;;;;;8.20;99.90;;;;;;5154967;27;19923;-69
2022/04/05 12:00:27;;;;;;;;;;;8.30;99.90;;;;;;5155192;27;19934;-69
2022/04/05 12:03:03;;;;;;;;;;;8.30;99.90;;;;;;5154865;27;20013;-67
2022/04/05 12:05:43;;;;;;;;;;;8.40;99.90;;;;;;5155371;27;20409;-67
2022/04/05 12:08:09;;;;;;;;;;;8.40;99.90;;;;;;5136905;27;20018;-68
2022/04/05 12:10:35;;;;;;;;;;;8.60;99.90;;;;;;5153600;27;19923;-68
2022/04/05 12:13:03;;;;;;;;;;;8.60;99.90;;;;;;5154829;27;19930;-68
2022/04/05 12:15:32;;;;;;;;;;;8.60;99.90;;;;;;5154724;27;19930;-68
2022/04/05 12:18:17;;;;;;;;;;;8.60;99.90;;;;;;5153813;27;20006;-69
2022/04/05 12:21:02;;;;;;;;;;;8.70;99.90;;;;;;5155000;27;19938;-68
2022/04/05 12:23:32;;;;;;;;;;;8.70;99.90;;;;;;5154896;27;19923;-69
2022/04/05 12:26:01;;;;;;;;;;;8.70;99.90;;;;;;5153586;27;19930;-67
2022/04/05 12:28:26;;;;;;;;;;;8.70;99.90;;;;;;5154770;27;19933;-68
2022/04/05 12:30:52;;;;;;;;;;;8.70;99.90;;;;;;5136870;27;20010;-69
2022/04/05 12:33:24;;;;;;;;;;;8.70;99.90;;;;;;5155020;27;19930;-69
2022/04/05 12:35:49;;;;;;;;;;;8.70;99.90;;;;;;5154864;27;20014;-68
2022/04/05 12:38:15;;;;;;;;;;;8.80;99.90;;;;;;5154786;27;19965;-67
2022/04/05 12:40:41;;;;;;;;;;;8.80;99.90;;;;;;5154695;27;19956;-69
2022/04/05 12:43:13;;;;;;;;;;;8.90;99.90;;;;;;5154689;27;20009;-69
2022/04/05 12:45:39;;;;;;;;;;;9.00;99.90;;;;;;5136433;27;19923;-68
2022/04/05 12:48:12;;;;;;;;;;;9.20;99.90;;;;;;5154679;27;20030;-69
2022/04/05 12:50:45;;;;;;;;;;;9.20;99.90;;;;;;5154510;27;19927;-68
2022/04/05 12:53:11;;;;;;;;;;;9.40;99.90;;;;;;5153417;27;19930;-69
2022/04/05 12:55:36;;;;;;;;;;;9.40;99.90;;;;;;5136122;27;20397;-67
2022/04/05 12:58:02;;;;;;;;;;;8.80;99.90;;;;;;5154798;27;19927;-69
2022/04/05 13:00:30;;;;;;;;;;;9.60;99.90;;;;;;5158523;27;19927;-69
2022/04/05 13:03:09;;;;;;;;;;;9.50;99.90;;;;;;5157036;27;19923;-68
2022/04/05 13:08:30;;;;;;;;;;;9.50;99.90;;;;;;5158506;27;19974;-68
2022/04/05 13:10:56;;;;;;;;;;;9.50;99.90;;;;;;5158359;27;19923;-68
2022/04/05 13:13:27;;;;;;;;;;;10.00;99.90;;;;;;5139638;27;19923;-68
2022/04/05 13:16:01;;;;;;;;;;;9.50;99.90;;;;;;5158213;27;19927;-69
2022/04/05 13:18:33;;;;;;;;;;;9.50;99.90;;;;;;5157890;27;19923;-68
2022/04/05 13:21:00;;;;;;;;;;;9.20;99.90;;;;;;5158155;27;19930;-68
2022/04/05 13:23:30;;;;;;;;;;;9.50;99.90;;;;;;5157969;27;19923;-69
2022/04/05 13:25:56;;;;;;;;;;;9.50;99.90;;;;;;5158048;27;19923;-69
2022/04/05 13:28:29;;;;;;;;;;;9.60;99.90;;;;;;5157800;27;19936;-69
2022/04/05 13:30:55;;;;;;;;;;;9.60;99.90;;;;;;5157814;27;19927;-68
2022/04/05 13:33:21;;;;;;;;;;;9.60;99.90;;;;;;5157747;27;20077;-68
2022/04/05 13:35:46;;;;;;;;;;;10.00;99.90;;;;;;5157961;27;20322;-68
2022/04/05 13:38:12;;;;;;;;;;;9.60;99.90;;;;;;5157921;27;20309;-69
2022/04/05 13:40:37;;;;;;;;;;;9.60;99.90;;;;;;5157859;27;19923;-68
2022/04/05 13:43:03;;;;;;;;;;;9.60;99.90;;;;;;5139236;27;19975;-68
2022/04/05 13:45:29;;;;;;;;;;;9.60;99.90;;;;;;5157643;27;19927;-69
2022/04/05 13:47:54;;;;;;;;;;;9.60;99.90;;;;;;5157365;27;19923;-69
2022/04/05 13:50:20;;;;;;;;;;;9.60;99.90;;;;;;5157797;27;19929;-69
2022/04/05 13:52:46;;;;;;;;;;;9.50;99.90;;;;;;5157659;27;20022;-69
2022/04/05 13:55:11;;;;;;;;;;;9.90;99.90;;;;;;5157482;27;19930;-69
2022/04/05 13:57:37;;;;;;;;;;;9.50;99.90;;;;;;5157776;27;19923;-68
2022/04/05 14:00:03;;;;;;;;;;;9.40;99.90;;;;;;5157202;27;20452;-68
2022/04/05 14:02:29;;;;;;;;;;;9.50;99.90;;;;;;5157085;27;19930;-69
2022/04/05 14:04:56;;;;;;;;;;;9.90;99.90;;;;;;5157423;27;19923;-70
2022/04/05 14:07:22;;;;;;;;;;;9.50;99.90;;;;;;5157320;27;19923;-69
2022/04/05 14:09:47;;;;;;;;;;;9.40;99.90;;;;;;5155918;27;19923;-69
2022/04/05 14:12:13;;;;;;;;;;;9.40;99.90;;;;;;5156933;27;20064;-69
2022/04/05 14:14:39;;;;;;;;;;;9.40;99.90;;;;;;5157066;27;19923;-68
2022/04/05 14:17:04;;;;;;;;;;;9.40;99.90;;;;;;5156854;27;19972;-69
2022/04/05 14:19:30;;;;;;;;;;;9.40;99.90;;;;;;5156836;27;19923;-68
2022/04/05 14:21:56;;;;;;;;;;;9.40;99.90;;;;;;5156881;27;20005;-69
2022/04/05 14:24:22;;;;;;;;;;;9.90;99.90;;;;;;5156554;27;20395;-69
2022/04/05 14:26:47;;;;;;;;;;;9.40;99.90;;;;;;5138348;27;19923;-68
2022/04/05 14:29:16;;;;;;;;;;;9.40;99.90;;;;;;5156703;27;19923;-68
2022/04/05 14:31:43;;;;;;;;;;;9.40;99.90;;;;;;5156647;27;19923;-69
2022/04/05 14:34:09;;;;;;;;;;;9.40;99.90;;;;;;5156584;27;19927;-70
2022/04/05 14:36:34;;;;;;;;;;;9.80;99.90;;;;;;5155910;27;20277;-69